sensor_id;sensor_type;location;lat;lon;timestamp;P1;durP1;ratioP1;P2;durP2;ratioP2
20627;SDS011;10473;42.734;24.258;2023-03-01T00:01:08;0.50;;;0.40;;
20627;SDS011;10473;42.734;24.258;2023-03-01T00:03:39;1.23;;;0.67;;
20627;SDS011;10473;42.734;24.258;2023-03-01T00:06:07;1.20;;;1.10;;
20627;SDS011;10473;42.734;24.258;2023-03-01T00:08:34;1.60;;;0.60;;
20627;SDS011;10473;42.734;24.258;2023-03-01T00:11:04;2.17;;;0.97;;
20627;SDS011;10473;42.734;24.258;2023-03-01T00:13:33;4.80;;;2.00;;
20627;SDS011;10473;42.734;24.258;2023-03-01T00:16:02;0.93;;;0.53;;
20627;SDS011;10473;42.734;24.258;2023-03-01T00:18:32;0.30;;;0.30;;
20627;SDS011;10473;42.734;24.258;2023-03-01T00:21:00;0.47;;;0.37;;
20627;SDS011;10473;42.734;24.258;2023-03-01T00:23:28;0.10;;;0.10;;
20627;SDS011;10473;42.734;24.258;2023-03-01T00:25:55;0.43;;;0.30;;
20627;SDS011;10473;42.734;24.258;2023-03-01T00:28:23;0.10;;;0.10;;
20627;SDS011;10473;42.734;24.258;2023-03-01T00:30:50;0.30;;;0.20;;
20627;SDS011;10473;42.734;24.258;2023-03-01T00:33:19;0.17;;;0.17;;
20627;SDS011;10473;42.734;24.258;2023-03-01T00:35:48;4.20;;;0.47;;
20627;SDS011;10473;42.734;24.258;2023-03-01T00:38:16;0.20;;;0.10;;
20627;SDS011;10473;42.734;24.258;2023-03-01T00:40:43;0.40;;;0.10;;
20627;SDS011;10473;42.734;24.258;2023-03-01T00:43:11;0.63;;;0.40;;
20627;SDS011;10473;42.734;24.258;2023-03-01T00:45:39;0.17;;;0.03;;
20627;SDS011;10473;42.734;24.258;2023-03-01T00:48:06;0.87;;;0.40;;
20627;SDS011;10473;42.734;24.258;2023-03-01T00:50:34;0.53;;;0.50;;
20627;SDS011;10473;42.734;24.258;2023-03-01T00:53:03;0.40;;;0.10;;
20627;SDS011;10473;42.734;24.258;2023-03-01T00:55:32;0.40;;;0.27;;
20627;SDS011;10473;42.734;24.258;2023-03-01T00:58:00;0.67;;;0.20;;
20627;SDS011;10473;42.734;24.258;2023-03-01T01:00:28;0.60;;;0.40;;
20627;SDS011;10473;42.734;24.258;2023-03-01T01:02:56;0.23;;;0.20;;
20627;SDS011;10473;42.734;24.258;2023-03-01T01:05:23;0.30;;;0.30;;
20627;SDS011;10473;42.734;24.258;2023-03-01T01:07:53;0.30;;;0.30;;
20627;SDS011;10473;42.734;24.258;2023-03-01T01:10:22;0.40;;;0.10;;
20627;SDS011;10473;42.734;24.258;2023-03-01T01:12:50;0.30;;;0.30;;
20627;SDS011;10473;42.734;24.258;2023-03-01T01:15:18;0.30;;;0.10;;
20627;SDS011;10473;42.734;24.258;2023-03-01T01:17:46;0.20;;;0.10;;
20627;SDS011;10473;42.734;24.258;2023-03-01T01:20:13;0.67;;;0.60;;
20627;SDS011;10473;42.734;24.258;2023-03-01T01:22:41;0.20;;;0.17;;
20627;SDS011;10473;42.734;24.258;2023-03-01T01:25:12;0.40;;;0.27;;
20627;SDS011;10473;42.734;24.258;2023-03-01T01:27:41;0.40;;;0.20;;
20627;SDS011;10473;42.734;24.258;2023-03-01T01:30:09;0.47;;;0.20;;
20627;SDS011;10473;42.734;24.258;2023-03-01T01:32:38;0.40;;;0.30;;
20627;SDS011;10473;42.734;24.258;2023-03-01T01:35:06;0.40;;;0.33;;
20627;SDS011;10473;42.734;24.258;2023-03-01T01:37:34;1.10;;;0.50;;
20627;SDS011;10473;42.734;24.258;2023-03-01T01:40:02;1.30;;;0.30;;
20627;SDS011;10473;42.734;24.258;2023-03-01T01:42:30;1.03;;;0.90;;
20627;SDS011;10473;42.734;24.258;2023-03-01T01:47:59;1.20;;;0.73;;
20627;SDS011;10473;42.734;24.258;2023-03-01T01:50:30;1.20;;;0.60;;
20627;SDS011;10473;42.734;24.258;2023-03-01T01:53:08;1.13;;;0.77;;
20627;SDS011;10473;42.734;24.258;2023-03-01T01:55:40;1.37;;;0.57;;
20627;SDS011;10473;42.734;24.258;2023-03-01T01:58:10;0.43;;;0.40;;
20627;SDS011;10473;42.734;24.258;2023-03-01T02:00:44;0.43;;;0.27;;
20627;SDS011;10473;42.734;24.258;2023-03-01T02:03:13;0.33;;;0.20;;
20627;SDS011;10473;42.734;24.258;2023-03-01T02:05:45;0.40;;;0.40;;
20627;SDS011;10473;42.734;24.258;2023-03-01T02:08:19;1.27;;;0.57;;
20627;SDS011;10473;42.734;24.258;2023-03-01T02:10:48;1.20;;;0.83;;
20627;SDS011;10473;42.734;24.258;2023-03-01T02:13:18;1.97;;;1.00;;
20627;SDS011;10473;42.734;24.258;2023-03-01T02:15:47;0.97;;;0.73;;
20627;SDS011;10473;42.734;24.258;2023-03-01T02:18:16;1.33;;;1.20;;
20627;SDS011;10473;42.734;24.258;2023-03-01T02:20:50;0.40;;;0.40;;
20627;SDS011;10473;42.734;24.258;2023-03-01T02:23:28;0.43;;;0.27;;
20627;SDS011;10473;42.734;24.258;2023-03-01T02:25:58;0.27;;;0.27;;
20627;SDS011;10473;42.734;24.258;2023-03-01T02:28:34;0.03;;;0.03;;
20627;SDS011;10473;42.734;24.258;2023-03-01T02:31:03;0.10;;;0.10;;
20627;SDS011;10473;42.734;24.258;2023-03-01T02:33:50;0.20;;;0.10;;
20627;SDS011;10473;42.734;24.258;2023-03-01T02:36:21;0.13;;;0.10;;
20627;SDS011;10473;42.734;24.258;2023-03-01T02:38:51;0.23;;;0.13;;
20627;SDS011;10473;42.734;24.258;2023-03-01T02:41:23;0.33;;;0.33;;
20627;SDS011;10473;42.734;24.258;2023-03-01T02:43:55;0.10;;;0.10;;
20627;SDS011;10473;42.734;24.258;2023-03-01T02:46:23;0.40;;;0.30;;
20627;SDS011;10473;42.734;24.258;2023-03-01T02:48:53;0.77;;;0.20;;
20627;SDS011;10473;42.734;24.258;2023-03-01T02:51:24;0.47;;;0.20;;
20627;SDS011;10473;42.734;24.258;2023-03-01T02:54:06;0.30;;;0.30;;
20627;SDS011;10473;42.734;24.258;2023-03-01T02:56:39;0.70;;;0.30;;
20627;SDS011;10473;42.734;24.258;2023-03-01T02:59:09;0.43;;;0.43;;
20627;SDS011;10473;42.734;24.258;2023-03-01T03:01:38;0.50;;;0.30;;
20627;SDS011;10473;42.734;24.258;2023-03-01T03:04:09;0.70;;;0.60;;
20627;SDS011;10473;42.734;24.258;2023-03-01T03:06:38;0.30;;;0.30;;
20627;SDS011;10473;42.734;24.258;2023-03-01T03:09:07;0.10;;;0.10;;
20627;SDS011;10473;42.734;24.258;2023-03-01T03:11:35;0.33;;;0.30;;
20627;SDS011;10473;42.734;24.258;2023-03-01T03:14:05;0.30;;;0.30;;
20627;SDS011;10473;42.734;24.258;2023-03-01T03:16:41;1.80;;;0.70;;
20627;SDS011;10473;42.734;24.258;2023-03-01T03:19:11;0.80;;;0.50;;
20627;SDS011;10473;42.734;24.258;2023-03-01T03:21:39;0.37;;;0.33;;
20627;SDS011;10473;42.734;24.258;2023-03-01T03:24:07;0.57;;;0.30;;
20627;SDS011;10473;42.734;24.258;2023-03-01T03:26:34;0.80;;;0.40;;
20627;SDS011;10473;42.734;24.258;2023-03-01T03:29:02;0.70;;;0.50;;
20627;SDS011;10473;42.734;24.258;2023-03-01T03:31:30;0.93;;;0.40;;
20627;SDS011;10473;42.734;24.258;2023-03-01T03:33:59;0.77;;;0.43;;
20627;SDS011;10473;42.734;24.258;2023-03-01T03:36:27;0.27;;;0.27;;
20627;SDS011;10473;42.734;24.258;2023-03-01T03:38:55;1.30;;;0.40;;
20627;SDS011;10473;42.734;24.258;2023-03-01T03:41:22;1.03;;;0.50;;
20627;SDS011;10473;42.734;24.258;2023-03-01T03:43:50;0.80;;;0.53;;
20627;SDS011;10473;42.734;24.258;2023-03-01T03:46:18;0.10;;;0.10;;
20627;SDS011;10473;42.734;24.258;2023-03-01T03:48:45;1.03;;;0.37;;
20627;SDS011;10473;42.734;24.258;2023-03-01T03:51:15;1.23;;;0.70;;
20627;SDS011;10473;42.734;24.258;2023-03-01T03:53:45;0.73;;;0.60;;
20627;SDS011;10473;42.734;24.258;2023-03-01T03:56:13;0.40;;;0.30;;
20627;SDS011;10473;42.734;24.258;2023-03-01T03:58:41;0.50;;;0.43;;
20627;SDS011;10473;42.734;24.258;2023-03-01T04:01:09;0.27;;;0.10;;
20627;SDS011;10473;42.734;24.258;2023-03-01T04:03:36;1.00;;;0.53;;
20627;SDS011;10473;42.734;24.258;2023-03-01T04:06:04;0.20;;;0.20;;
20627;SDS011;10473;42.734;24.258;2023-03-01T04:08:34;0.40;;;0.40;;
20627;SDS011;10473;42.734;24.258;2023-03-01T04:11:02;0.50;;;0.50;;
20627;SDS011;10473;42.734;24.258;2023-03-01T04:13:45;2.37;;;0.70;;
20627;SDS011;10473;42.734;24.258;2023-03-01T04:16:12;0.50;;;0.50;;
20627;SDS011;10473;42.734;24.258;2023-03-01T04:18:40;0.63;;;0.40;;
20627;SDS011;10473;42.734;24.258;2023-03-01T04:21:08;0.67;;;0.50;;
20627;SDS011;10473;42.734;24.258;2023-03-01T04:23:38;2.17;;;1.03;;
20627;SDS011;10473;42.734;24.258;2023-03-01T04:26:06;5.43;;;4.10;;
20627;SDS011;10473;42.734;24.258;2023-03-01T04:28:36;1.30;;;1.20;;
20627;SDS011;10473;42.734;24.258;2023-03-01T04:31:06;0.40;;;0.40;;
20627;SDS011;10473;42.734;24.258;2023-03-01T04:33:39;2.00;;;1.63;;
20627;SDS011;10473;42.734;24.258;2023-03-01T04:36:08;1.87;;;1.07;;
20627;SDS011;10473;42.734;24.258;2023-03-01T04:38:38;2.13;;;0.93;;
20627;SDS011;10473;42.734;24.258;2023-03-01T04:41:07;9.90;;;5.57;;
20627;SDS011;10473;42.734;24.258;2023-03-01T04:43:37;7.10;;;3.67;;
20627;SDS011;10473;42.734;24.258;2023-03-01T04:46:06;1.83;;;0.70;;
20627;SDS011;10473;42.734;24.258;2023-03-01T04:48:35;0.60;;;0.40;;
20627;SDS011;10473;42.734;24.258;2023-03-01T04:51:04;1.03;;;0.40;;
20627;SDS011;10473;42.734;24.258;2023-03-01T04:53:33;14.17;;;8.43;;
20627;SDS011;10473;42.734;24.258;2023-03-01T04:56:03;4.50;;;2.37;;
20627;SDS011;10473;42.734;24.258;2023-03-01T04:58:32;4.87;;;2.97;;
20627;SDS011;10473;42.734;24.258;2023-03-01T05:00:59;3.77;;;1.97;;
20627;SDS011;10473;42.734;24.258;2023-03-01T05:03:27;2.03;;;0.73;;
20627;SDS011;10473;42.734;24.258;2023-03-01T05:05:58;0.30;;;0.30;;
20627;SDS011;10473;42.734;24.258;2023-03-01T05:08:26;5.87;;;4.37;;
20627;SDS011;10473;42.734;24.258;2023-03-01T05:10:54;1.70;;;1.60;;
20627;SDS011;10473;42.734;24.258;2023-03-01T05:13:23;0.80;;;0.80;;
20627;SDS011;10473;42.734;24.258;2023-03-01T05:15:53;3.33;;;1.77;;
20627;SDS011;10473;42.734;24.258;2023-03-01T05:18:22;2.73;;;2.00;;
20627;SDS011;10473;42.734;24.258;2023-03-01T05:20:51;1.83;;;1.33;;
20627;SDS011;10473;42.734;24.258;2023-03-01T05:23:22;1.70;;;0.70;;
20627;SDS011;10473;42.734;24.258;2023-03-01T05:25:50;1.50;;;1.30;;
20627;SDS011;10473;42.734;24.258;2023-03-01T05:28:18;2.43;;;1.87;;
20627;SDS011;10473;42.734;24.258;2023-03-01T05:30:49;0.33;;;0.30;;
20627;SDS011;10473;42.734;24.258;2023-03-01T05:33:17;1.57;;;1.30;;
20627;SDS011;10473;42.734;24.258;2023-03-01T05:35:45;1.40;;;1.10;;
20627;SDS011;10473;42.734;24.258;2023-03-01T05:38:14;2.70;;;1.80;;
20627;SDS011;10473;42.734;24.258;2023-03-01T05:40:45;2.00;;;1.80;;
20627;SDS011;10473;42.734;24.258;2023-03-01T05:43:14;2.70;;;1.87;;
20627;SDS011;10473;42.734;24.258;2023-03-01T05:45:44;3.53;;;2.60;;
20627;SDS011;10473;42.734;24.258;2023-03-01T05:48:13;3.47;;;2.53;;
20627;SDS011;10473;42.734;24.258;2023-03-01T05:50:42;3.40;;;2.50;;
20627;SDS011;10473;42.734;24.258;2023-03-01T05:53:12;5.17;;;3.47;;
20627;SDS011;10473;42.734;24.258;2023-03-01T05:55:41;6.47;;;5.13;;
20627;SDS011;10473;42.734;24.258;2023-03-01T05:58:10;5.13;;;3.20;;
20627;SDS011;10473;42.734;24.258;2023-03-01T06:00:41;6.03;;;3.70;;
20627;SDS011;10473;42.734;24.258;2023-03-01T06:03:12;6.27;;;3.73;;
20627;SDS011;10473;42.734;24.258;2023-03-01T06:05:43;3.50;;;1.90;;
20627;SDS011;10473;42.734;24.258;2023-03-01T06:08:14;2.43;;;1.67;;
20627;SDS011;10473;42.734;24.258;2023-03-01T06:10:41;2.93;;;2.03;;
20627;SDS011;10473;42.734;24.258;2023-03-01T06:13:09;1.83;;;1.30;;
20627;SDS011;10473;42.734;24.258;2023-03-01T06:15:37;4.17;;;2.57;;
20627;SDS011;10473;42.734;24.258;2023-03-01T06:18:05;4.67;;;3.23;;
20627;SDS011;10473;42.734;24.258;2023-03-01T06:20:34;5.40;;;3.93;;
20627;SDS011;10473;42.734;24.258;2023-03-01T06:23:01;7.50;;;4.40;;
20627;SDS011;10473;42.734;24.258;2023-03-01T06:25:30;3.27;;;2.70;;
20627;SDS011;10473;42.734;24.258;2023-03-01T06:27:58;7.43;;;4.20;;
20627;SDS011;10473;42.734;24.258;2023-03-01T06:30:25;3.87;;;2.80;;
20627;SDS011;10473;42.734;24.258;2023-03-01T06:32:53;4.27;;;2.03;;
20627;SDS011;10473;42.734;24.258;2023-03-01T06:35:26;3.03;;;1.70;;
20627;SDS011;10473;42.734;24.258;2023-03-01T06:37:57;4.10;;;1.80;;
20627;SDS011;10473;42.734;24.258;2023-03-01T06:40:26;2.17;;;1.47;;
20627;SDS011;10473;42.734;24.258;2023-03-01T06:42:54;2.67;;;1.57;;
20627;SDS011;10473;42.734;24.258;2023-03-01T06:45:22;3.13;;;2.20;;
20627;SDS011;10473;42.734;24.258;2023-03-01T06:47:50;3.90;;;1.93;;
20627;SDS011;10473;42.734;24.258;2023-03-01T06:50:18;3.03;;;2.30;;
20627;SDS011;10473;42.734;24.258;2023-03-01T06:52:46;4.13;;;3.47;;
20627;SDS011;10473;42.734;24.258;2023-03-01T06:55:15;6.23;;;2.53;;
20627;SDS011;10473;42.734;24.258;2023-03-01T06:57:43;5.97;;;2.80;;
20627;SDS011;10473;42.734;24.258;2023-03-01T07:00:11;4.40;;;3.33;;
20627;SDS011;10473;42.734;24.258;2023-03-01T07:02:39;3.80;;;2.70;;
20627;SDS011;10473;42.734;24.258;2023-03-01T07:05:07;12.50;;;9.23;;
20627;SDS011;10473;42.734;24.258;2023-03-01T07:07:35;5.27;;;3.10;;
20627;SDS011;10473;42.734;24.258;2023-03-01T07:10:03;10.93;;;6.23;;
20627;SDS011;10473;42.734;24.258;2023-03-01T07:12:33;13.47;;;6.10;;
20627;SDS011;10473;42.734;24.258;2023-03-01T07:15:00;5.77;;;3.77;;
20627;SDS011;10473;42.734;24.258;2023-03-01T07:17:28;5.47;;;2.93;;
20627;SDS011;10473;42.734;24.258;2023-03-01T07:19:56;10.53;;;4.83;;
20627;SDS011;10473;42.734;24.258;2023-03-01T07:22:24;9.20;;;4.43;;
20627;SDS011;10473;42.734;24.258;2023-03-01T07:24:51;6.53;;;4.27;;
20627;SDS011;10473;42.734;24.258;2023-03-01T07:27:19;7.03;;;4.00;;
20627;SDS011;10473;42.734;24.258;2023-03-01T07:29:48;7.40;;;3.87;;
20627;SDS011;10473;42.734;24.258;2023-03-01T07:32:16;6.40;;;4.53;;
20627;SDS011;10473;42.734;24.258;2023-03-01T07:34:43;8.63;;;5.30;;
20627;SDS011;10473;42.734;24.258;2023-03-01T07:37:11;11.43;;;5.53;;
20627;SDS011;10473;42.734;24.258;2023-03-01T07:39:39;16.30;;;7.40;;
20627;SDS011;10473;42.734;24.258;2023-03-01T07:42:07;10.10;;;5.73;;
20627;SDS011;10473;42.734;24.258;2023-03-01T07:44:35;8.43;;;5.53;;
20627;SDS011;10473;42.734;24.258;2023-03-01T07:47:04;7.90;;;4.60;;
20627;SDS011;10473;42.734;24.258;2023-03-01T07:49:32;10.67;;;6.13;;
20627;SDS011;10473;42.734;24.258;2023-03-01T07:52:00;7.40;;;3.90;;
20627;SDS011;10473;42.734;24.258;2023-03-01T07:54:27;6.53;;;3.83;;
20627;SDS011;10473;42.734;24.258;2023-03-01T07:56:56;6.83;;;3.73;;
20627;SDS011;10473;42.734;24.258;2023-03-01T07:59:23;5.60;;;2.93;;
20627;SDS011;10473;42.734;24.258;2023-03-01T09:00:31;12.73;;;8.27;;
20627;SDS011;10473;42.734;24.258;2023-03-01T09:03:00;12.13;;;7.07;;
20627;SDS011;10473;42.734;24.258;2023-03-01T09:05:30;9.53;;;5.97;;
20627;SDS011;10473;42.734;24.258;2023-03-01T09:07:58;8.00;;;5.60;;
20627;SDS011;10473;42.734;24.258;2023-03-01T09:10:26;6.50;;;4.53;;
20627;SDS011;10473;42.734;24.258;2023-03-01T09:12:53;5.37;;;3.57;;
20627;SDS011;10473;42.734;24.258;2023-03-01T09:15:21;5.33;;;4.77;;
20627;SDS011;10473;42.734;24.258;2023-03-01T09:17:50;5.77;;;3.20;;
20627;SDS011;10473;42.734;24.258;2023-03-01T09:20:18;5.73;;;3.73;;
20627;SDS011;10473;42.734;24.258;2023-03-01T09:22:45;6.93;;;4.13;;
20627;SDS011;10473;42.734;24.258;2023-03-01T09:25:13;5.33;;;3.80;;
20627;SDS011;10473;42.734;24.258;2023-03-01T09:27:41;5.97;;;3.07;;
20627;SDS011;10473;42.734;24.258;2023-03-01T09:30:09;4.57;;;3.63;;
20627;SDS011;10473;42.734;24.258;2023-03-01T09:32:38;4.10;;;3.33;;
20627;SDS011;10473;42.734;24.258;2023-03-01T09:35:09;4.63;;;3.83;;
20627;SDS011;10473;42.734;24.258;2023-03-01T09:37:38;4.20;;;3.00;;
20627;SDS011;10473;42.734;24.258;2023-03-01T09:40:11;4.97;;;2.80;;
20627;SDS011;10473;42.734;24.258;2023-03-01T09:42:46;6.30;;;2.70;;
20627;SDS011;10473;42.734;24.258;2023-03-01T09:45:22;4.27;;;2.97;;
20627;SDS011;10473;42.734;24.258;2023-03-01T09:47:54;5.93;;;3.63;;
20627;SDS011;10473;42.734;24.258;2023-03-01T09:50:31;5.23;;;3.80;;
20627;SDS011;10473;42.734;24.258;2023-03-01T09:53:04;4.23;;;2.97;;
20627;SDS011;10473;42.734;24.258;2023-03-01T09:55:37;4.27;;;2.80;;
20627;SDS011;10473;42.734;24.258;2023-03-01T09:58:17;8.43;;;3.27;;
20627;SDS011;10473;42.734;24.258;2023-03-01T10:00:57;5.80;;;4.57;;
20627;SDS011;10473;42.734;24.258;2023-03-01T10:03:31;7.83;;;3.47;;
20627;SDS011;10473;42.734;24.258;2023-03-01T10:06:06;7.23;;;5.57;;
20627;SDS011;10473;42.734;24.258;2023-03-01T10:08:41;9.30;;;7.03;;
20627;SDS011;10473;42.734;24.258;2023-03-01T10:11:19;5.17;;;3.67;;
20627;SDS011;10473;42.734;24.258;2023-03-01T10:13:50;11.73;;;8.27;;
20627;SDS011;10473;42.734;24.258;2023-03-01T10:16:26;10.47;;;7.00;;
20627;SDS011;10473;42.734;24.258;2023-03-01T10:19:01;11.70;;;9.17;;
20627;SDS011;10473;42.734;24.258;2023-03-01T10:21:33;9.70;;;6.10;;
20627;SDS011;10473;42.734;24.258;2023-03-01T10:24:10;5.43;;;4.63;;
20627;SDS011;10473;42.734;24.258;2023-03-01T10:26:44;9.80;;;5.47;;
20627;SDS011;10473;42.734;24.258;2023-03-01T10:29:19;7.83;;;5.40;;
20627;SDS011;10473;42.734;24.258;2023-03-01T10:31:51;12.77;;;8.47;;
20627;SDS011;10473;42.734;24.258;2023-03-01T10:34:22;7.27;;;5.40;;
20627;SDS011;10473;42.734;24.258;2023-03-01T10:36:57;7.57;;;4.87;;
20627;SDS011;10473;42.734;24.258;2023-03-01T10:39:28;9.47;;;5.57;;
20627;SDS011;10473;42.734;24.258;2023-03-01T10:41:57;11.83;;;7.73;;
20627;SDS011;10473;42.734;24.258;2023-03-01T10:47:19;11.37;;;7.73;;
20627;SDS011;10473;42.734;24.258;2023-03-01T10:49:52;16.80;;;9.50;;
20627;SDS011;10473;42.734;24.258;2023-03-01T10:52:24;8.93;;;6.90;;
20627;SDS011;10473;42.734;24.258;2023-03-01T10:54:54;8.80;;;5.70;;
20627;SDS011;10473;42.734;24.258;2023-03-01T10:57:31;9.73;;;6.57;;
20627;SDS011;10473;42.734;24.258;2023-03-01T11:00:16;7.43;;;4.87;;
20627;SDS011;10473;42.734;24.258;2023-03-01T11:02:47;11.33;;;4.97;;
20627;SDS011;10473;42.734;24.258;2023-03-01T11:05:18;12.97;;;7.57;;
20627;SDS011;10473;42.734;24.258;2023-03-01T11:07:51;7.60;;;5.13;;
20627;SDS011;10473;42.734;24.258;2023-03-01T11:10:21;7.07;;;5.13;;
20627;SDS011;10473;42.734;24.258;2023-03-01T11:12:51;8.17;;;5.53;;
20627;SDS011;10473;42.734;24.258;2023-03-01T11:15:20;8.03;;;5.70;;
20627;SDS011;10473;42.734;24.258;2023-03-01T11:17:50;8.30;;;6.00;;
20627;SDS011;10473;42.734;24.258;2023-03-01T11:20:20;8.40;;;5.33;;
20627;SDS011;10473;42.734;24.258;2023-03-01T11:22:55;8.63;;;5.77;;
20627;SDS011;10473;42.734;24.258;2023-03-01T11:25:26;7.23;;;5.63;;
20627;SDS011;10473;42.734;24.258;2023-03-01T11:27:58;13.47;;;7.00;;
20627;SDS011;10473;42.734;24.258;2023-03-01T11:30:31;10.43;;;7.07;;
20627;SDS011;10473;42.734;24.258;2023-03-01T11:33:11;9.03;;;6.20;;
20627;SDS011;10473;42.734;24.258;2023-03-01T11:35:46;9.20;;;6.37;;
20627;SDS011;10473;42.734;24.258;2023-03-01T11:38:24;12.00;;;6.80;;
20627;SDS011;10473;42.734;24.258;2023-03-01T11:40:54;10.97;;;6.83;;
20627;SDS011;10473;42.734;24.258;2023-03-01T11:43:33;13.37;;;8.33;;
20627;SDS011;10473;42.734;24.258;2023-03-01T11:46:30;14.63;;;8.33;;
20627;SDS011;10473;42.734;24.258;2023-03-01T11:49:32;10.57;;;5.90;;
20627;SDS011;10473;42.734;24.258;2023-03-01T11:52:12;14.20;;;6.73;;
20627;SDS011;10473;42.734;24.258;2023-03-01T11:54:55;14.40;;;6.70;;
20627;SDS011;10473;42.734;24.258;2023-03-01T11:57:43;10.33;;;6.13;;
20627;SDS011;10473;42.734;24.258;2023-03-01T12:00:27;8.40;;;5.53;;
20627;SDS011;10473;42.734;24.258;2023-03-01T12:03:17;7.40;;;5.37;;
20627;SDS011;10473;42.734;24.258;2023-03-01T12:06:01;5.87;;;4.33;;
20627;SDS011;10473;42.734;24.258;2023-03-01T12:08:40;4.50;;;3.77;;
20627;SDS011;10473;42.734;24.258;2023-03-01T12:11:15;5.13;;;3.93;;
20627;SDS011;10473;42.734;24.258;2023-03-01T12:13:56;8.57;;;4.93;;
20627;SDS011;10473;42.734;24.258;2023-03-01T12:16:40;5.67;;;3.33;;
20627;SDS011;10473;42.734;24.258;2023-03-01T12:19:31;6.57;;;5.10;;
20627;SDS011;10473;42.734;24.258;2023-03-01T12:22:28;10.07;;;6.87;;
20627;SDS011;10473;42.734;24.258;2023-03-01T12:27:57;11.87;;;5.07;;
20627;SDS011;10473;42.734;24.258;2023-03-01T12:30:48;13.73;;;4.77;;
20627;SDS011;10473;42.734;24.258;2023-03-01T12:33:25;7.90;;;5.47;;
20627;SDS011;10473;42.734;24.258;2023-03-01T12:39:12;5.57;;;4.30;;
20627;SDS011;10473;42.734;24.258;2023-03-01T12:42:01;6.73;;;4.53;;
20627;SDS011;10473;42.734;24.258;2023-03-01T12:44:47;9.07;;;4.23;;
20627;SDS011;10473;42.734;24.258;2023-03-01T12:47:33;15.47;;;7.60;;
20627;SDS011;10473;42.734;24.258;2023-03-01T12:50:16;9.23;;;4.60;;
20627;SDS011;10473;42.734;24.258;2023-03-01T12:52:47;5.77;;;3.60;;
20627;SDS011;10473;42.734;24.258;2023-03-01T12:55:24;8.30;;;5.93;;
20627;SDS011;10473;42.734;24.258;2023-03-01T12:57:59;6.63;;;4.97;;
20627;SDS011;10473;42.734;24.258;2023-03-01T13:00:37;5.13;;;3.37;;
20627;SDS011;10473;42.734;24.258;2023-03-01T13:03:16;6.03;;;4.43;;
20627;SDS011;10473;42.734;24.258;2023-03-01T13:05:57;13.83;;;7.97;;
20627;SDS011;10473;42.734;24.258;2023-03-01T13:08:36;8.40;;;4.63;;
20627;SDS011;10473;42.734;24.258;2023-03-01T13:11:14;7.93;;;5.03;;
20627;SDS011;10473;42.734;24.258;2023-03-01T13:13:44;19.20;;;11.83;;
20627;SDS011;10473;42.734;24.258;2023-03-01T13:16:38;7.37;;;4.97;;
20627;SDS011;10473;42.734;24.258;2023-03-01T13:19:10;6.30;;;5.20;;
20627;SDS011;10473;42.734;24.258;2023-03-01T13:21:42;7.97;;;5.77;;
20627;SDS011;10473;42.734;24.258;2023-03-01T13:24:29;13.70;;;8.27;;
20627;SDS011;10473;42.734;24.258;2023-03-01T13:29:55;12.73;;;5.03;;
20627;SDS011;10473;42.734;24.258;2023-03-01T13:32:27;16.40;;;8.77;;
20627;SDS011;10473;42.734;24.258;2023-03-01T13:34:58;12.73;;;8.33;;
20627;SDS011;10473;42.734;24.258;2023-03-01T13:37:28;10.23;;;7.20;;
20627;SDS011;10473;42.734;24.258;2023-03-01T13:40:02;6.30;;;4.50;;
20627;SDS011;10473;42.734;24.258;2023-03-01T13:42:52;21.03;;;6.57;;
20627;SDS011;10473;42.734;24.258;2023-03-01T13:45:22;10.83;;;5.20;;
20627;SDS011;10473;42.734;24.258;2023-03-01T13:48:01;5.20;;;4.33;;
20627;SDS011;10473;42.734;24.258;2023-03-01T13:50:37;4.93;;;4.00;;
20627;SDS011;10473;42.734;24.258;2023-03-01T13:53:11;10.63;;;7.23;;
20627;SDS011;10473;42.734;24.258;2023-03-01T13:55:45;9.30;;;5.20;;
20627;SDS011;10473;42.734;24.258;2023-03-01T13:58:16;5.20;;;3.93;;
20627;SDS011;10473;42.734;24.258;2023-03-01T14:00:54;5.43;;;4.67;;
20627;SDS011;10473;42.734;24.258;2023-03-01T14:03:26;3.80;;;3.20;;
20627;SDS011;10473;42.734;24.258;2023-03-01T14:05:59;6.90;;;4.43;;
20627;SDS011;10473;42.734;24.258;2023-03-01T14:08:32;5.70;;;4.40;;
20627;SDS011;10473;42.734;24.258;2023-03-01T14:11:10;8.77;;;5.40;;
20627;SDS011;10473;42.734;24.258;2023-03-01T14:14:06;5.83;;;3.50;;
20627;SDS011;10473;42.734;24.258;2023-03-01T14:16:48;8.10;;;4.20;;
20627;SDS011;10473;42.734;24.258;2023-03-01T14:19:24;7.27;;;5.27;;
20627;SDS011;10473;42.734;24.258;2023-03-01T14:22:01;8.43;;;4.43;;
20627;SDS011;10473;42.734;24.258;2023-03-01T14:24:38;5.17;;;3.33;;
20627;SDS011;10473;42.734;24.258;2023-03-01T14:27:11;10.83;;;6.83;;
20627;SDS011;10473;42.734;24.258;2023-03-01T14:29:40;20.10;;;9.50;;
20627;SDS011;10473;42.734;24.258;2023-03-01T14:32:09;14.73;;;8.37;;
20627;SDS011;10473;42.734;24.258;2023-03-01T14:34:43;8.17;;;6.27;;
20627;SDS011;10473;42.734;24.258;2023-03-01T14:37:17;7.70;;;5.67;;
20627;SDS011;10473;42.734;24.258;2023-03-01T14:39:48;13.97;;;10.23;;
20627;SDS011;10473;42.734;24.258;2023-03-01T14:42:16;13.87;;;12.30;;
20627;SDS011;10473;42.734;24.258;2023-03-01T14:44:45;11.13;;;8.53;;
20627;SDS011;10473;42.734;24.258;2023-03-01T14:47:19;8.77;;;5.47;;
20627;SDS011;10473;42.734;24.258;2023-03-01T14:49:56;8.50;;;5.67;;
20627;SDS011;10473;42.734;24.258;2023-03-01T14:52:28;7.07;;;5.60;;
20627;SDS011;10473;42.734;24.258;2023-03-01T14:55:02;8.60;;;5.70;;
20627;SDS011;10473;42.734;24.258;2023-03-01T14:57:32;8.87;;;4.63;;
20627;SDS011;10473;42.734;24.258;2023-03-01T15:00:01;7.10;;;5.33;;
20627;SDS011;10473;42.734;24.258;2023-03-01T15:02:32;4.60;;;3.13;;
20627;SDS011;10473;42.734;24.258;2023-03-01T15:05:03;7.87;;;4.07;;
20627;SDS011;10473;42.734;24.258;2023-03-01T15:07:34;7.87;;;4.63;;
20627;SDS011;10473;42.734;24.258;2023-03-01T15:10:06;6.70;;;4.60;;
20627;SDS011;10473;42.734;24.258;2023-03-01T15:12:41;6.53;;;4.20;;
20627;SDS011;10473;42.734;24.258;2023-03-01T15:18:12;7.43;;;5.97;;
20627;SDS011;10473;42.734;24.258;2023-03-01T15:20:44;8.83;;;6.30;;
20627;SDS011;10473;42.734;24.258;2023-03-01T15:23:22;10.70;;;7.27;;
20627;SDS011;10473;42.734;24.258;2023-03-01T15:25:51;8.63;;;7.03;;
20627;SDS011;10473;42.734;24.258;2023-03-01T15:28:24;9.33;;;6.33;;
20627;SDS011;10473;42.734;24.258;2023-03-01T15:30:57;4.73;;;3.93;;
20627;SDS011;10473;42.734;24.258;2023-03-01T15:33:30;8.30;;;4.20;;
20627;SDS011;10473;42.734;24.258;2023-03-01T15:36:02;8.20;;;4.40;;
20627;SDS011;10473;42.734;24.258;2023-03-01T15:38:51;9.50;;;6.30;;
20627;SDS011;10473;42.734;24.258;2023-03-01T15:41:24;6.30;;;4.63;;
20627;SDS011;10473;42.734;24.258;2023-03-01T15:43:53;5.33;;;4.60;;
20627;SDS011;10473;42.734;24.258;2023-03-01T15:46:23;8.07;;;6.47;;
20627;SDS011;10473;42.734;24.258;2023-03-01T15:48:58;4.83;;;3.47;;
20627;SDS011;10473;42.734;24.258;2023-03-01T15:51:30;10.00;;;8.00;;
20627;SDS011;10473;42.734;24.258;2023-03-01T15:54:01;7.10;;;4.47;;
20627;SDS011;10473;42.734;24.258;2023-03-01T15:56:31;5.97;;;4.50;;
20627;SDS011;10473;42.734;24.258;2023-03-01T15:59:00;6.47;;;4.87;;
20627;SDS011;10473;42.734;24.258;2023-03-01T16:01:29;6.97;;;5.27;;
20627;SDS011;10473;42.734;24.258;2023-03-01T16:03:57;8.17;;;5.77;;
20627;SDS011;10473;42.734;24.258;2023-03-01T16:06:25;5.77;;;4.73;;
20627;SDS011;10473;42.734;24.258;2023-03-01T16:08:54;5.40;;;4.90;;
20627;SDS011;10473;42.734;24.258;2023-03-01T16:11:22;8.03;;;5.43;;
20627;SDS011;10473;42.734;24.258;2023-03-01T16:13:49;8.43;;;6.20;;
20627;SDS011;10473;42.734;24.258;2023-03-01T16:16:18;5.40;;;4.33;;